createdAt,value
2022-07-29T00:00:00.678Z,1.60
2022-07-29T00:02:28.195Z,1.60
2022-07-29T00:04:54.960Z,1.73
2022-07-29T00:07:21.647Z,1.80
2022-07-29T00:09:51.676Z,1.90
2022-07-29T00:12:26.420Z,1.60
2022-07-29T00:14:57.960Z,1.57
2022-07-29T00:17:25.506Z,1.77
2022-07-29T00:19:52.349Z,1.53
2022-07-29T00:22:19.213Z,1.60
2022-07-29T00:24:45.859Z,1.67
2022-07-29T00:27:12.661Z,2.10
2022-07-29T00:29:39.404Z,1.67
2022-07-29T00:32:06.403Z,1.93
2022-07-29T00:34:51.831Z,1.83
2022-07-29T00:37:18.491Z,1.90
2022-07-29T00:39:45.269Z,1.90
2022-07-29T00:42:12.056Z,1.50
2022-07-29T00:44:42.656Z,1.73
2022-07-29T00:47:10.849Z,1.37
2022-07-29T00:49:38.485Z,1.67
2022-07-29T00:52:06.215Z,2.10
2022-07-29T00:54:34.196Z,1.70
2022-07-29T00:57:01.568Z,1.90
2022-07-29T00:59:35.133Z,1.50
2022-07-29T01:02:03.596Z,1.80
2022-07-29T01:04:30.953Z,1.80
2022-07-29T01:06:57.799Z,1.67
2022-07-29T01:09:35.001Z,2.30
2022-07-29T01:12:11.859Z,2.07
2022-07-29T01:14:38.949Z,1.83
2022-07-29T01:17:17.103Z,1.70
2022-07-29T01:19:50.518Z,1.80
2022-07-29T01:22:30.282Z,1.77
2022-07-29T01:25:55.926Z,1.90
2022-07-29T01:28:46.199Z,1.77
2022-07-29T01:31:22.107Z,1.70
2022-07-29T01:33:58.305Z,1.90
2022-07-29T01:36:31.567Z,1.77
2022-07-29T01:39:13.670Z,1.87
2022-07-29T01:41:49.514Z,1.70
2022-07-29T01:44:21.511Z,1.50
2022-07-29T01:46:55.721Z,1.70
2022-07-29T01:49:29.782Z,2.10
2022-07-29T01:52:03.610Z,2.00
2022-07-29T01:54:35.823Z,1.87
2022-07-29T01:57:03.367Z,1.40
2022-07-29T01:59:30.779Z,1.87
2022-07-29T02:01:59.817Z,1.80
2022-07-29T02:04:29.711Z,1.80
2022-07-29T02:07:00.321Z,1.73
2022-07-29T02:09:27.902Z,1.80
2022-07-29T02:11:56.397Z,1.77
2022-07-29T02:14:24.423Z,1.83
2022-07-29T02:16:54.846Z,1.80
2022-07-29T02:19:23.484Z,1.87
2022-07-29T02:21:52.833Z,1.90
2022-07-29T02:24:20.027Z,1.60
2022-07-29T02:26:47.206Z,1.80
2022-07-29T02:29:15.233Z,1.90
2022-07-29T02:31:44.587Z,1.70
2022-07-29T02:34:12.010Z,1.70
2022-07-29T02:36:39.126Z,1.67
2022-07-29T02:39:06.131Z,2.30
2022-07-29T02:41:42.440Z,1.97
2022-07-29T02:44:15.779Z,1.57
2022-07-29T02:47:02.531Z,1.93
2022-07-29T02:49:36.636Z,1.77
2022-07-29T02:52:05.833Z,1.90
2022-07-29T02:54:36.179Z,1.50
2022-07-29T02:57:07.538Z,1.93
2022-07-29T02:59:35.688Z,1.43
2022-07-29T03:02:03.518Z,1.77
2022-07-29T03:04:32.239Z,2.20
2022-07-29T03:07:00.603Z,1.90
2022-07-29T03:09:28.180Z,1.83
2022-07-29T03:11:56.150Z,1.80
2022-07-29T03:14:24.060Z,2.20
2022-07-29T03:16:51.695Z,1.53
2022-07-29T03:19:19.535Z,2.10
2022-07-29T03:21:46.442Z,1.63
2022-07-29T03:24:26.519Z,1.97
2022-07-29T03:26:53.325Z,1.83
2022-07-29T03:29:20.000Z,1.87
2022-07-29T03:31:46.845Z,1.80
2022-07-29T03:34:15.383Z,1.60
2022-07-29T03:36:42.339Z,1.63
2022-07-29T03:39:10.478Z,1.80
2022-07-29T03:41:38.526Z,1.60
2022-07-29T03:44:07.160Z,1.60
2022-07-29T03:46:35.596Z,1.60
2022-07-29T03:49:04.589Z,1.90
2022-07-29T03:51:33.770Z,2.50
2022-07-29T03:54:09.289Z,2.60
2022-07-29T03:56:43.985Z,1.83
2022-07-29T03:59:11.818Z,1.90
2022-07-29T04:01:39.010Z,1.70
2022-07-29T04:04:06.202Z,1.73
2022-07-29T04:06:43.040Z,1.77
2022-07-29T04:09:10.108Z,1.70
2022-07-29T04:11:56.966Z,2.00
2022-07-29T04:14:27.695Z,2.10
2022-07-29T04:16:54.384Z,2.20
2022-07-29T04:19:21.067Z,2.20
2022-07-29T04:21:47.833Z,2.40
2022-07-29T04:24:14.880Z,2.40
2022-07-29T04:26:41.832Z,2.70
2022-07-29T04:29:08.557Z,2.43
2022-07-29T04:31:35.362Z,2.30
2022-07-29T04:34:02.064Z,2.00
2022-07-29T04:36:29.945Z,2.80
2022-07-29T04:38:57.104Z,3.30
2022-07-29T04:41:23.802Z,2.90
2022-07-29T04:44:02.027Z,3.73
2022-07-29T04:46:28.919Z,3.30
2022-07-29T04:48:55.738Z,2.90
2022-07-29T04:51:22.456Z,3.00
2022-07-29T04:53:49.131Z,2.50
2022-07-29T04:56:15.829Z,2.37
2022-07-29T04:58:42.493Z,2.17
2022-07-29T05:01:09.198Z,2.07
2022-07-29T05:03:35.895Z,2.40
2022-07-29T05:06:02.534Z,2.17
2022-07-29T05:08:29.241Z,2.27
2022-07-29T05:10:55.844Z,2.10
2022-07-29T05:13:22.522Z,2.40
2022-07-29T05:15:49.453Z,1.93
2022-07-29T05:18:16.555Z,2.30
2022-07-29T05:20:43.404Z,2.43
2022-07-29T05:23:10.239Z,3.13
2022-07-29T05:25:40.716Z,2.50
2022-07-29T05:28:10.762Z,2.40
2022-07-29T05:30:37.595Z,2.57
2022-07-29T05:33:04.463Z,2.43
2022-07-29T05:35:31.070Z,2.20
2022-07-29T05:37:57.712Z,2.27
2022-07-29T05:40:24.360Z,2.17
2022-07-29T05:42:50.990Z,2.23
2022-07-29T05:45:17.650Z,2.30
2022-07-29T05:47:44.390Z,2.27
2022-07-29T05:50:11.013Z,2.33
2022-07-29T05:52:37.684Z,2.50
2022-07-29T05:55:06.645Z,2.17
2022-07-29T05:57:33.637Z,3.10
2022-07-29T06:00:00.367Z,2.20
2022-07-29T06:02:27.353Z,2.20
2022-07-29T06:04:54.084Z,2.20
2022-07-29T06:07:20.977Z,2.70
2022-07-29T06:09:47.612Z,2.60
2022-07-29T06:12:14.285Z,2.30
2022-07-29T06:14:41.207Z,2.50
2022-07-29T06:17:08.050Z,2.47
2022-07-29T06:19:37.866Z,2.93
2022-07-29T06:22:05.162Z,2.80
2022-07-29T06:24:31.915Z,3.10
2022-07-29T06:26:58.580Z,2.60
2022-07-29T06:29:25.195Z,2.60
2022-07-29T06:31:51.810Z,2.83
2022-07-29T06:34:18.822Z,2.77
2022-07-29T06:36:45.989Z,2.60
2022-07-29T06:39:13.222Z,2.50
2022-07-29T06:41:39.969Z,2.40
2022-07-29T06:44:06.794Z,2.67
2022-07-29T06:46:33.850Z,2.40
2022-07-29T06:49:02.748Z,2.23
2022-07-29T06:51:29.666Z,2.73
2022-07-29T06:53:59.671Z,2.57
2022-07-29T06:56:38.537Z,2.57
2022-07-29T06:59:08.237Z,2.70
2022-07-29T07:01:35.278Z,2.40
2022-07-29T07:04:01.969Z,2.60
2022-07-29T07:06:28.752Z,2.30
2022-07-29T07:08:55.519Z,2.80
2022-07-29T07:11:22.189Z,2.60
2022-07-29T07:13:48.934Z,2.73
2022-07-29T07:16:16.091Z,2.80
2022-07-29T07:18:42.885Z,2.70
2022-07-29T07:21:09.695Z,2.83
2022-07-29T07:23:36.459Z,2.70
2022-07-29T07:26:04.119Z,2.60
2022-07-29T07:28:30.806Z,2.50
2022-07-29T07:30:57.562Z,2.93
2022-07-29T07:33:24.410Z,3.10
2022-07-29T07:35:51.171Z,3.17
2022-07-29T07:38:18.099Z,2.70
2022-07-29T07:40:44.813Z,2.70
2022-07-29T07:43:11.494Z,2.70
2022-07-29T07:45:38.647Z,3.07
2022-07-29T07:48:06.156Z,2.80
2022-07-29T07:50:32.963Z,2.83
2022-07-29T07:53:00.193Z,2.97
2022-07-29T07:55:27.038Z,3.40
2022-07-29T07:57:54.735Z,3.37
2022-07-29T08:00:23.750Z,3.30
2022-07-29T08:02:51.413Z,3.60
2022-07-29T08:05:19.206Z,3.27
2022-07-29T08:07:47.165Z,3.50
2022-07-29T08:10:16.015Z,3.20
2022-07-29T08:12:44.592Z,3.13
2022-07-29T08:15:11.448Z,3.10
2022-07-29T08:17:38.228Z,3.40
2022-07-29T08:20:05.432Z,3.53
2022-07-29T08:22:32.198Z,4.20
2022-07-29T08:24:58.890Z,4.30
2022-07-29T08:27:42.863Z,3.70
2022-07-29T08:30:11.486Z,3.43
2022-07-29T08:32:55.426Z,3.60
2022-07-29T08:35:24.526Z,3.60
2022-07-29T08:37:52.192Z,4.13
2022-07-29T08:40:19.691Z,4.10
2022-07-29T08:42:46.511Z,4.27
2022-07-29T08:45:13.440Z,4.60
2022-07-29T08:47:40.943Z,4.30
2022-07-29T08:50:09.008Z,4.20
2022-07-29T08:52:41.196Z,3.67
2022-07-29T08:55:09.647Z,4.40
2022-07-29T08:57:37.255Z,4.23
2022-07-29T09:00:11.440Z,4.30
2022-07-29T09:02:46.731Z,4.17
2022-07-29T09:05:16.972Z,3.70
2022-07-29T09:07:44.953Z,4.03
2022-07-29T09:10:11.875Z,4.13
2022-07-29T09:12:39.033Z,4.00
2022-07-29T09:15:06.160Z,3.90
2022-07-29T09:17:43.049Z,4.30
2022-07-29T09:20:14.659Z,4.00
2022-07-29T09:22:42.305Z,4.07
2022-07-29T09:25:09.989Z,3.97
2022-07-29T09:27:37.115Z,3.57
2022-07-29T09:30:11.580Z,4.13
2022-07-29T09:32:59.346Z,3.50
2022-07-29T09:35:27.569Z,4.23
2022-07-29T09:37:54.583Z,4.33
2022-07-29T09:40:23.711Z,4.60
2022-07-29T09:42:50.704Z,4.00
2022-07-29T09:45:34.745Z,4.23
2022-07-29T09:48:15.355Z,4.43
2022-07-29T09:50:43.408Z,4.17
2022-07-29T09:53:11.190Z,4.70
2022-07-29T09:55:51.722Z,4.20
2022-07-29T09:58:20.999Z,4.30
2022-07-29T10:00:48.864Z,4.27
2022-07-29T10:03:16.801Z,4.27
2022-07-29T10:05:44.308Z,4.70
2022-07-29T10:08:13.417Z,4.60
2022-07-29T10:10:43.280Z,4.60
2022-07-29T10:13:15.726Z,4.30
2022-07-29T10:15:46.167Z,5.00
2022-07-29T10:18:18.550Z,4.77
2022-07-29T10:20:45.512Z,4.07
2022-07-29T10:23:12.371Z,4.53
2022-07-29T10:25:39.096Z,4.63
2022-07-29T10:28:07.144Z,4.37
2022-07-29T10:30:34.026Z,4.30
2022-07-29T10:33:09.897Z,4.57
2022-07-29T10:36:17.547Z,4.50
2022-07-29T10:39:18.348Z,4.43
2022-07-29T10:42:33.629Z,4.57
2022-07-29T10:45:01.889Z,5.20
2022-07-29T10:47:28.585Z,4.73
2022-07-29T10:49:59.362Z,4.90
2022-07-29T10:52:46.828Z,5.10
2022-07-29T10:55:37.810Z,3.97
2022-07-29T10:58:19.445Z,3.30
2022-07-29T11:00:49.380Z,3.43
2022-07-29T11:03:52.239Z,3.37
2022-07-29T11:06:27.077Z,3.50
2022-07-29T11:09:25.744Z,3.30
2022-07-29T11:12:02.643Z,3.20
2022-07-29T11:15:00.265Z,3.00
2022-07-29T11:17:27.236Z,3.40
2022-07-29T11:20:42.948Z,3.30
2022-07-29T11:23:27.757Z,3.67
2022-07-29T11:26:23.211Z,3.90
2022-07-29T11:28:55.615Z,3.63
2022-07-29T11:31:45.282Z,4.10
2022-07-29T11:34:21.129Z,4.27
2022-07-29T11:37:12.493Z,4.73
2022-07-29T11:39:43.363Z,3.67
2022-07-29T11:42:28.297Z,3.80
2022-07-29T11:45:41.052Z,4.07
2022-07-29T11:47:58.667Z,3.90
2022-07-29T11:50:48.243Z,3.77
2022-07-29T11:53:15.479Z,4.57
2022-07-29T11:55:51.141Z,4.53
2022-07-29T11:58:25.015Z,4.93
2022-07-29T12:00:55.540Z,4.27
2022-07-29T12:03:34.217Z,4.43
2022-07-29T12:06:15.110Z,3.87
2022-07-29T12:08:46.088Z,4.33
2022-07-29T12:11:22.746Z,4.30
2022-07-29T12:13:51.741Z,6.30
2022-07-29T12:16:25.341Z,4.60
2022-07-29T12:19:04.046Z,4.33
2022-07-29T12:21:53.953Z,4.37
2022-07-29T12:24:26.897Z,4.10
2022-07-29T12:26:58.738Z,3.60
2022-07-29T12:29:33.963Z,3.97
2022-07-29T12:32:03.081Z,4.00
2022-07-29T12:34:30.565Z,3.93
2022-07-29T12:36:57.358Z,3.80
2022-07-29T12:39:27.486Z,3.80
2022-07-29T12:42:03.842Z,4.00
2022-07-29T12:44:48.049Z,4.40
2022-07-29T12:47:15.075Z,3.60
2022-07-29T12:49:42.292Z,3.60
2022-07-29T12:52:25.316Z,3.47
2022-07-29T12:54:52.689Z,3.17
2022-07-29T12:57:19.914Z,3.93
2022-07-29T13:00:00.481Z,3.40
2022-07-29T13:02:27.254Z,4.00
2022-07-29T13:04:59.425Z,3.80
2022-07-29T13:07:57.076Z,3.63
2022-07-29T13:10:24.164Z,4.00
2022-07-29T13:13:14.577Z,3.63
2022-07-29T13:15:43.384Z,3.70
2022-07-29T13:18:29.876Z,3.80
2022-07-29T13:20:57.073Z,4.03
2022-07-29T13:23:23.871Z,4.10
2022-07-29T13:25:50.542Z,3.83
2022-07-29T13:28:17.637Z,3.87
2022-07-29T13:30:44.935Z,3.50
2022-07-29T13:33:11.961Z,3.57
2022-07-29T13:35:39.905Z,3.63
2022-07-29T13:38:07.032Z,3.97
2022-07-29T13:40:36.411Z,3.80
2022-07-29T13:43:03.208Z,4.13
2022-07-29T13:45:30.877Z,3.83
2022-07-29T13:47:57.614Z,4.57
2022-07-29T13:50:24.420Z,4.90
2022-07-29T13:52:52.044Z,5.00
2022-07-29T13:55:18.817Z,4.50
2022-07-29T13:57:45.506Z,4.67
2022-07-29T14:00:13.313Z,3.80
2022-07-29T14:02:40.062Z,4.28
2022-07-29T14:05:08.634Z,4.35
2022-07-29T14:07:35.669Z,4.22
2022-07-29T14:10:02.474Z,3.88
2022-07-29T14:12:29.127Z,3.60
2022-07-29T14:14:55.932Z,3.80
2022-07-29T14:17:22.899Z,4.60
2022-07-29T14:19:49.738Z,4.60
2022-07-29T14:22:16.532Z,4.30
2022-07-29T14:24:43.229Z,3.70
2022-07-29T14:27:10.010Z,4.28
2022-07-29T14:29:38.477Z,3.15
2022-07-29T14:32:10.137Z,3.40
2022-07-29T14:34:38.058Z,3.13
2022-07-29T14:37:06.917Z,3.20
2022-07-29T14:39:36.096Z,3.60
2022-07-29T14:42:06.332Z,3.63
2022-07-29T14:44:33.078Z,2.90
2022-07-29T14:47:00.940Z,3.05
2022-07-29T14:49:34.605Z,3.25
2022-07-29T14:52:01.531Z,3.17
2022-07-29T14:54:28.398Z,3.80
2022-07-29T14:56:58.274Z,3.33
2022-07-29T14:59:25.821Z,2.75
2022-07-29T15:01:52.682Z,2.88
2022-07-29T15:04:19.479Z,2.60
2022-07-29T15:06:46.374Z,2.80
2022-07-29T15:09:13.253Z,3.65
2022-07-29T15:11:40.063Z,4.10
2022-07-29T15:14:07.248Z,3.85
2022-07-29T15:16:36.281Z,3.63
2022-07-29T15:19:03.086Z,3.33
2022-07-29T15:21:29.778Z,3.05
2022-07-29T15:23:56.555Z,2.30
2022-07-29T15:26:23.421Z,2.97
2022-07-29T15:28:50.248Z,3.00
2022-07-29T15:31:17.158Z,3.25
2022-07-29T15:33:43.865Z,3.05
2022-07-29T15:36:25.419Z,2.72
2022-07-29T15:38:59.730Z,2.70
2022-07-29T15:41:26.494Z,2.60
2022-07-29T15:43:53.312Z,3.00
2022-07-29T15:46:39.010Z,2.50
2022-07-29T15:49:07.442Z,2.60
2022-07-29T15:51:34.448Z,2.40
2022-07-29T15:54:04.799Z,2.45
2022-07-29T15:56:31.915Z,2.70
2022-07-29T15:58:58.794Z,2.50
2022-07-29T16:01:25.712Z,2.63
2022-07-29T16:03:52.652Z,2.30
2022-07-29T16:06:19.581Z,2.38
2022-07-29T16:08:46.469Z,2.25
2022-07-29T16:11:13.347Z,2.67
2022-07-29T16:13:40.148Z,2.30
2022-07-29T16:16:07.029Z,2.50
2022-07-29T16:18:34.853Z,2.83
2022-07-29T16:21:01.674Z,2.22
2022-07-29T16:23:28.531Z,2.50
2022-07-29T16:26:00.091Z,2.67
2022-07-29T16:28:28.719Z,2.90
2022-07-29T16:30:55.805Z,2.60
2022-07-29T16:33:23.663Z,2.47
2022-07-29T16:35:51.171Z,2.38
2022-07-29T16:38:18.031Z,2.80
2022-07-29T16:40:45.109Z,3.38
2022-07-29T16:43:16.274Z,3.00
2022-07-29T16:46:01.005Z,3.53
2022-07-29T16:48:27.826Z,3.30
2022-07-29T16:50:54.933Z,3.25
2022-07-29T16:53:21.875Z,3.08
2022-07-29T16:55:48.563Z,3.05
2022-07-29T16:58:53.497Z,2.90
2022-07-29T17:01:22.566Z,2.72
2022-07-29T17:04:16.149Z,2.88
2022-07-29T17:06:43.060Z,2.88
2022-07-29T17:09:11.627Z,2.83
2022-07-29T17:11:54.078Z,2.70
2022-07-29T17:14:25.546Z,2.50
2022-07-29T17:17:00.000Z,2.40
2022-07-29T17:19:32.734Z,2.67
2022-07-29T17:22:08.442Z,2.60
2022-07-29T17:24:37.251Z,2.60
2022-07-29T17:27:05.887Z,2.72
2022-07-29T17:29:32.654Z,2.55
2022-07-29T17:32:00.195Z,2.70
2022-07-29T17:34:27.069Z,2.42
2022-07-29T17:36:53.904Z,2.60
2022-07-29T17:39:20.635Z,2.50
2022-07-29T17:41:47.395Z,2.28
2022-07-29T17:44:14.195Z,2.20
2022-07-29T17:46:41.456Z,2.40
2022-07-29T17:49:08.262Z,2.78
2022-07-29T17:51:35.105Z,2.25
2022-07-29T17:54:01.764Z,2.50
2022-07-29T17:56:28.465Z,2.60
2022-07-29T17:58:55.306Z,2.40
2022-07-29T18:01:23.767Z,2.40
2022-07-29T18:03:50.563Z,2.75
2022-07-29T18:06:17.404Z,2.40
2022-07-29T18:08:47.577Z,2.90
2022-07-29T18:11:15.158Z,2.72
2022-07-29T18:13:42.352Z,2.67
2022-07-29T18:16:09.539Z,2.88
2022-07-29T18:18:36.367Z,2.85
2022-07-29T18:21:03.715Z,2.92
2022-07-29T18:23:30.643Z,2.80
2022-07-29T18:25:57.402Z,3.30
2022-07-29T18:28:24.062Z,2.72
2022-07-29T18:30:51.087Z,2.65
2022-07-29T18:33:21.629Z,3.25
2022-07-29T18:35:50.512Z,3.22
2022-07-29T18:38:17.454Z,3.00
2022-07-29T18:40:45.905Z,2.80
2022-07-29T18:43:13.239Z,3.35
2022-07-29T18:45:40.139Z,3.20
2022-07-29T18:48:12.896Z,2.92
2022-07-29T18:50:40.218Z,3.00
2022-07-29T18:53:08.317Z,2.63
2022-07-29T18:55:35.322Z,2.80
2022-07-29T18:58:02.128Z,2.72
2022-07-29T19:00:28.878Z,2.90
2022-07-29T19:02:56.287Z,3.38
2022-07-29T19:05:25.244Z,3.03
2022-07-29T19:07:52.146Z,3.33
2022-07-29T19:10:18.979Z,2.95
2022-07-29T19:12:45.852Z,2.95
2022-07-29T19:15:12.659Z,3.08
2022-07-29T19:17:46.911Z,2.72
2022-07-29T19:20:14.588Z,3.08
2022-07-29T19:22:41.487Z,2.72
2022-07-29T19:25:09.452Z,2.75
2022-07-29T19:27:36.115Z,2.90
2022-07-29T19:30:05.078Z,3.00
2022-07-29T19:32:31.762Z,2.72
2022-07-29T19:35:16.954Z,2.80
2022-07-29T19:37:43.842Z,3.00
2022-07-29T19:40:12.267Z,3.53
2022-07-29T19:42:41.165Z,3.40
2022-07-29T19:45:08.377Z,3.80
2022-07-29T19:47:35.157Z,3.30
2022-07-29T19:50:02.455Z,3.22
2022-07-29T19:52:29.186Z,3.53
2022-07-29T19:54:55.962Z,3.50
2022-07-29T19:57:22.896Z,3.28
2022-07-29T19:59:51.003Z,3.65
2022-07-29T20:02:17.853Z,3.42
2022-07-29T20:04:44.648Z,3.53
2022-07-29T20:07:11.653Z,3.67
2022-07-29T20:09:40.154Z,3.47
2022-07-29T20:12:12.891Z,3.60
2022-07-29T20:14:39.588Z,3.40
2022-07-29T20:17:06.809Z,3.42
2022-07-29T20:19:33.496Z,3.65
2022-07-29T20:22:00.667Z,3.50
2022-07-29T20:24:27.582Z,3.70
2022-07-29T20:26:54.452Z,3.50
2022-07-29T20:29:21.338Z,3.53
2022-07-29T20:31:53.492Z,3.70
2022-07-29T20:34:23.358Z,4.35
2022-07-29T20:36:50.083Z,4.47
2022-07-29T20:39:16.755Z,4.28
2022-07-29T20:41:43.481Z,4.50
2022-07-29T20:44:10.341Z,4.72
2022-07-29T20:46:37.210Z,4.63
2022-07-29T20:49:04.160Z,4.70
2022-07-29T20:51:31.195Z,4.72
2022-07-29T20:54:10.070Z,4.53
2022-07-29T20:56:36.856Z,5.20
2022-07-29T20:59:03.599Z,5.32
2022-07-29T21:01:30.678Z,4.60
2022-07-29T21:03:57.420Z,4.70
2022-07-29T21:06:24.081Z,4.72
2022-07-29T21:08:50.817Z,4.78
2022-07-29T21:11:17.816Z,5.03
2022-07-29T21:14:04.786Z,4.90
2022-07-29T21:16:33.496Z,5.15
2022-07-29T21:19:00.274Z,5.35
2022-07-29T21:21:27.044Z,6.00
2022-07-29T21:23:53.919Z,5.20
2022-07-29T21:26:20.610Z,5.43
2022-07-29T21:28:47.339Z,5.57
2022-07-29T21:31:17.371Z,5.28
2022-07-29T21:33:47.548Z,4.97
2022-07-29T21:36:46.404Z,4.78
2022-07-29T21:39:07.412Z,5.00
2022-07-29T21:41:35.537Z,4.70
2022-07-29T21:44:02.176Z,5.05
2022-07-29T21:46:28.940Z,4.50
2022-07-29T21:48:55.833Z,4.00
2022-07-29T21:51:22.635Z,3.83
2022-07-29T21:53:50.669Z,3.88
2022-07-29T21:56:20.091Z,3.80
2022-07-29T21:58:49.398Z,3.85
2022-07-29T22:01:16.168Z,3.72
2022-07-29T22:03:43.008Z,4.13
2022-07-29T22:06:11.363Z,3.55
2022-07-29T22:08:45.819Z,4.00
2022-07-29T22:11:13.085Z,4.28
2022-07-29T22:13:39.940Z,3.85
2022-07-29T22:16:06.990Z,3.80
2022-07-29T22:18:33.765Z,4.10
2022-07-29T22:21:00.458Z,4.45
2022-07-29T22:23:27.134Z,3.70
2022-07-29T22:25:53.930Z,3.97
2022-07-29T22:28:20.584Z,4.00
2022-07-29T22:30:47.357Z,4.15
2022-07-29T22:33:17.614Z,4.38
2022-07-29T22:35:44.882Z,3.67
2022-07-29T22:38:14.994Z,4.30
2022-07-29T22:40:41.722Z,4.07
2022-07-29T22:43:08.353Z,4.20
2022-07-29T22:45:35.051Z,3.80
2022-07-29T22:48:01.770Z,4.10
2022-07-29T22:50:30.025Z,4.32
2022-07-29T22:52:56.857Z,4.38
2022-07-29T22:55:23.537Z,4.50
2022-07-29T22:57:50.275Z,4.35
2022-07-29T23:00:17.017Z,5.10
2022-07-29T23:02:43.719Z,4.20
2022-07-29T23:05:15.918Z,4.75
2022-07-29T23:07:43.035Z,4.50
2022-07-29T23:10:10.271Z,4.65
2022-07-29T23:12:36.999Z,4.60
2022-07-29T23:15:05.416Z,4.32
2022-07-29T23:17:36.160Z,4.28
2022-07-29T23:20:07.809Z,4.10
2022-07-29T23:22:35.919Z,4.28
2022-07-29T23:25:02.713Z,4.15
2022-07-29T23:27:29.390Z,4.05
2022-07-29T23:29:56.191Z,4.60
2022-07-29T23:32:22.835Z,3.95
2022-07-29T23:34:49.524Z,3.83
2022-07-29T23:37:16.181Z,4.50
2022-07-29T23:39:42.866Z,4.15
2022-07-29T23:42:09.689Z,4.03
2022-07-29T23:44:36.351Z,4.27
2022-07-29T23:47:03.385Z,4.30
2022-07-29T23:49:30.493Z,4.03
2022-07-29T23:51:57.332Z,4.40
2022-07-29T23:54:24.016Z,4.27
2022-07-29T23:56:50.779Z,4.40
2022-07-29T23:59:17.538Z,4.47
